Time;durP1;ratioP1;P1;durP2;ratioP2;P2;SDS_P1;SDS_P2;PMS_P1;PMS_P2;Temp;Humidity;BMP_temperature;BMP_pressure;BME280_temperature;BME280_humidity;BME280_pressure;Samples;Min_cycle;Max_cycle;Signal;HPM_P1;HPM_P2
2021/04/30 00:00:07;;;;;;;24.30;15.55;;;12.80;61.50;;;;;;5033604;28;20033;-62
2021/04/30 00:02:33;;;;;;;24.00;16.08;;;12.80;61.80;;;;;;5018833;28;20444;-62
2021/04/30 00:04:58;;;;;;;25.60;16.83;;;12.80;61.90;;;;;;5034627;28;20052;-62
2021/04/30 00:07:24;;;;;;;26.30;16.05;;;12.70;61.70;;;;;;5033632;28;20116;-62
2021/04/30 00:09:50;;;;;;;24.02;14.95;;;12.70;61.80;;;;;;5034545;28;20017;-62
2021/04/30 00:12:15;;;;;;;20.98;14.32;;;12.70;61.90;;;;;;5029704;28;20026;-62
2021/04/30 00:14:41;;;;;;;21.45;13.75;;;12.70;61.80;;;;;;5014539;28;20065;-62
2021/04/30 00:17:07;;;;;;;17.33;12.68;;;12.70;62.00;;;;;;5014480;28;20040;-62
2021/04/30 00:19:33;;;;;;;21.55;12.88;;;12.70;62.20;;;;;;5018966;28;20027;-62
2021/04/30 00:21:59;;;;;;;20.40;13.48;;;12.70;62.20;;;;;;5030758;28;20040;-62
2021/04/30 00:24:25;;;;;;;19.30;13.15;;;12.70;62.10;;;;;;5028775;28;20033;-62
2021/04/30 00:26:50;;;;;;;20.27;12.90;;;12.70;62.20;;;;;;5027078;28;20032;-62
2021/04/30 00:29:16;;;;;;;17.27;11.38;;;12.60;62.50;;;;;;5029242;28;20121;-62
2021/04/30 00:31:42;;;;;;;16.75;12.45;;;12.60;62.60;;;;;;5029187;28;20027;-62
2021/04/30 00:34:08;;;;;;;15.50;11.93;;;12.60;62.60;;;;;;5034066;28;20041;-62
2021/04/30 00:36:34;;;;;;;18.05;11.82;;;12.50;62.60;;;;;;5029331;28;20083;-62
2021/04/30 00:39:02;;;;;;;20.17;12.73;;;12.50;62.90;;;;;;5032923;28;20029;-62
2021/04/30 00:41:28;;;;;;;22.67;13.65;;;12.50;62.90;;;;;;5020541;28;20584;-62
2021/04/30 00:43:53;;;;;;;20.45;13.02;;;12.40;62.90;;;;;;5027988;28;20101;-62
2021/04/30 00:46:19;;;;;;;18.42;12.55;;;12.40;63.00;;;;;;5014053;28;20125;-62
2021/04/30 00:48:45;;;;;;;17.70;13.57;;;12.40;63.00;;;;;;5014219;28;20481;-62
2021/04/30 00:51:10;;;;;;;16.88;14.00;;;12.40;63.00;;;;;;5023976;28;20026;-62
2021/04/30 00:53:36;;;;;;;20.17;13.02;;;12.40;63.20;;;;;;5023494;28;20112;-62
2021/04/30 00:56:02;;;;;;;18.92;12.35;;;12.40;63.30;;;;;;5035573;28;20025;-62
2021/04/30 00:58:27;;;;;;;18.45;13.15;;;12.40;63.10;;;;;;5033127;28;20044;-62
2021/04/30 01:00:53;;;;;;;18.08;12.02;;;12.30;63.40;;;;;;5024446;28;20034;-62
2021/04/30 01:03:20;;;;;;;18.25;11.23;;;12.30;63.40;;;;;;5019722;28;20037;-62
2021/04/30 01:05:45;;;;;;;16.02;10.88;;;12.30;63.50;;;;;;5030572;28;20045;-62
2021/04/30 01:08:11;;;;;;;15.25;11.35;;;12.30;63.40;;;;;;5031584;28;20392;-62
2021/04/30 01:10:37;;;;;;;15.75;11.68;;;12.30;63.60;;;;;;5020900;28;20029;-62
2021/04/30 01:13:03;;;;;;;20.27;10.85;;;12.30;63.80;;;;;;5029333;28;20088;-62
2021/04/30 01:15:28;;;;;;;18.45;10.98;;;12.30;63.90;;;;;;5030825;28;20029;-62
2021/04/30 01:17:54;;;;;;;17.20;11.05;;;12.20;63.90;;;;;;5031917;28;20389;-62
2021/04/30 01:20:21;;;;;;;12.73;9.65;;;12.20;64.00;;;;;;5033489;28;20359;-62
2021/04/30 01:22:52;;;;;;;13.75;11.00;;;12.20;64.00;;;;;;5031565;28;20037;-62
2021/04/30 01:25:26;;;;;;;16.15;12.38;;;12.20;64.10;;;;;;5028693;28;20029;-62
2021/04/30 01:27:53;;;;;;;16.40;9.57;;;12.20;64.10;;;;;;5032669;28;20037;-62
2021/04/30 01:30:24;;;;;;;13.57;10.45;;;12.10;64.20;;;;;;5001140;28;20036;-62
2021/04/30 01:32:50;;;;;;;13.57;10.67;;;12.10;64.10;;;;;;5027106;28;20029;-62
2021/04/30 01:35:20;;;;;;;14.43;10.98;;;12.10;64.20;;;;;;5013362;28;20304;-62
2021/04/30 01:37:48;;;;;;;16.83;11.70;;;12.10;64.50;;;;;;5018412;28;20033;-62
2021/04/30 01:40:25;;;;;;;17.60;11.65;;;12.10;64.60;;;;;;5028475;28;20057;-62
2021/04/30 01:42:59;;;;;;;15.20;10.80;;;12.10;64.70;;;;;;5016602;28;20058;-62
2021/04/30 01:45:26;;;;;;;14.25;11.00;;;12.00;64.70;;;;;;5023582;28;20033;-62
2021/04/30 01:47:52;;;;;;;15.75;11.60;;;12.00;64.90;;;;;;5031251;28;20021;-62
2021/04/30 01:50:18;;;;;;;17.67;11.77;;;12.00;64.90;;;;;;5033210;28;20079;-62
2021/04/30 01:52:43;;;;;;;16.58;11.27;;;12.00;65.00;;;;;;5023258;28;20046;-62
2021/04/30 01:55:09;;;;;;;17.25;11.45;;;12.00;64.90;;;;;;5030500;28;20059;-62
2021/04/30 01:57:36;;;;;;;18.80;12.23;;;12.00;65.00;;;;;;5022777;28;20074;-62
2021/04/30 02:00:04;;;;;;;15.93;11.02;;;12.00;65.10;;;;;;5018860;28;20033;-62
2021/04/30 02:02:44;;;;;;;15.25;10.23;;;12.00;65.10;;;;;;5033864;28;20022;-62
2021/04/30 02:05:10;;;;;;;14.90;11.07;;;11.90;65.10;;;;;;5034090;28;20053;-62
2021/04/30 02:07:36;;;;;;;13.90;10.95;;;11.90;65.30;;;;;;5027931;28;20034;-62
2021/04/30 02:10:05;;;;;;;15.52;11.95;;;11.90;65.30;;;;;;5047147;28;20028;-62
2021/04/30 02:12:31;;;;;;;19.90;13.02;;;11.90;65.50;;;;;;5045961;28;20068;-62
2021/04/30 02:14:56;;;;;;;17.48;11.90;;;12.00;65.50;;;;;;5035702;28;20236;-62
2021/04/30 02:17:22;;;;;;;15.45;12.25;;;11.90;66.30;;;;;;5033113;28;20087;-62
2021/04/30 02:19:48;;;;;;;16.65;11.77;;;12.00;65.70;;;;;;5035776;28;20104;-62
2021/04/30 02:22:13;;;;;;;23.38;13.57;;;11.90;65.50;;;;;;5036225;28;20359;-62
2021/04/30 02:24:40;;;;;;;20.50;13.15;;;11.90;65.70;;;;;;5028991;28;20037;-62
2021/04/30 02:27:06;;;;;;;21.00;13.40;;;11.90;65.80;;;;;;5034072;28;20068;-62
2021/04/30 02:29:33;;;;;;;18.65;13.77;;;11.90;65.70;;;;;;5033662;28;20061;-62
2021/04/30 02:31:58;;;;;;;19.02;13.68;;;11.90;65.90;;;;;;5032258;28;20033;-62
2021/04/30 02:34:24;;;;;;;24.33;14.65;;;11.90;66.20;;;;;;5035969;28;20022;-62
2021/04/30 02:36:50;;;;;;;21.38;13.65;;;11.90;66.00;;;;;;5034966;28;20052;-62
2021/04/30 02:39:15;;;;;;;23.52;14.38;;;11.80;66.00;;;;;;5028754;28;20025;-62
2021/04/30 02:41:41;;;;;;;23.95;15.32;;;11.80;66.30;;;;;;5023275;28;20030;-62
2021/04/30 02:44:07;;;;;;;20.88;14.05;;;11.90;66.20;;;;;;5034464;28;20082;-62
2021/04/30 02:46:32;;;;;;;19.85;13.73;;;11.90;66.30;;;;;;5034711;28;20112;-62
2021/04/30 02:49:02;;;;;;;23.95;14.00;;;11.90;66.30;;;;;;5027055;28;20063;-62
2021/04/30 02:51:28;;;;;;;20.20;12.93;;;11.90;66.40;;;;;;5034022;28;20536;-62
2021/04/30 02:53:54;;;;;;;25.42;13.93;;;11.90;66.40;;;;;;5014916;28;20026;-62
2021/04/30 02:56:19;;;;;;;22.50;14.48;;;11.90;66.60;;;;;;5015931;28;20034;-62
2021/04/30 02:58:45;;;;;;;24.33;13.07;;;11.90;66.70;;;;;;5030431;28;20065;-62
2021/04/30 03:01:11;;;;;;;25.17;13.63;;;11.90;66.50;;;;;;5027678;28;20018;-62
2021/04/30 03:03:36;;;;;;;19.98;12.75;;;11.90;66.50;;;;;;5027086;28;20037;-62
2021/04/30 03:06:02;;;;;;;22.35;13.55;;;11.90;66.50;;;;;;5035466;28;20477;-62
2021/04/30 03:08:28;;;;;;;20.23;13.65;;;12.00;66.60;;;;;;5032696;28;20079;-62
2021/04/30 03:10:53;;;;;;;19.77;13.55;;;12.00;66.80;;;;;;5015581;28;20022;-62
2021/04/30 03:13:19;;;;;;;23.42;14.02;;;12.10;67.00;;;;;;5017500;28;20032;-62
2021/04/30 03:15:44;;;;;;;22.17;14.73;;;12.10;67.00;;;;;;5028708;28;20445;-62
2021/04/30 03:18:10;;;;;;;21.63;13.32;;;12.20;67.00;;;;;;5017321;28;20488;-62
2021/04/30 03:20:36;;;;;;;22.15;13.93;;;12.30;67.70;;;;;;5016228;28;20030;-62
2021/04/30 03:23:01;;;;;;;23.42;13.70;;;12.40;67.00;;;;;;5022338;28;20013;-62
2021/04/30 03:25:27;;;;;;;22.70;13.15;;;12.50;66.90;;;;;;5016961;28;20030;-62
2021/04/30 03:27:53;;;;;;;26.50;14.23;;;12.60;66.60;;;;;;5027508;28;20029;-62
2021/04/30 03:30:19;;;;;;;22.60;13.55;;;12.70;66.50;;;;;;5032468;28;20022;-62
2021/04/30 03:32:45;;;;;;;21.63;13.40;;;12.80;66.40;;;;;;5035482;28;20389;-62
2021/04/30 03:35:16;;;;;;;18.38;12.88;;;12.90;66.10;;;;;;5035279;28;20025;-62
2021/04/30 03:37:42;;;;;;;17.33;10.88;;;13.00;66.00;;;;;;5035736;28;20030;-62
2021/04/30 03:40:08;;;;;;;17.77;11.15;;;13.20;66.00;;;;;;5036293;28;20104;-62
2021/04/30 03:42:33;;;;;;;18.17;11.73;;;13.30;66.10;;;;;;5035326;28;20103;-62
2021/04/30 03:44:59;;;;;;;15.25;11.10;;;13.40;66.80;;;;;;5021201;28;20026;-62
2021/04/30 03:47:25;;;;;;;20.05;10.98;;;13.70;66.20;;;;;;5023077;28;20034;-62
2021/04/30 03:49:51;;;;;;;16.95;11.05;;;13.80;65.80;;;;;;5034916;28;20025;-63
2021/04/30 03:52:16;;;;;;;16.95;11.00;;;14.00;65.60;;;;;;5027957;28;20045;-62
2021/04/30 03:54:42;;;;;;;13.18;10.73;;;14.30;65.10;;;;;;5035076;28;20507;-62
2021/04/30 03:57:08;;;;;;;19.88;11.35;;;14.50;65.10;;;;;;5034051;28;20405;-63
2021/04/30 03:59:33;;;;;;;15.15;10.63;;;14.70;65.20;;;;;;5035002;28;20109;-62
2021/04/30 04:01:59;;;;;;;14.85;9.88;;;15.10;65.00;;;;;;5019696;28;20550;-63
2021/04/30 04:04:25;;;;;;;12.45;10.05;;;15.50;64.50;;;;;;5024144;28;20049;-63
2021/04/30 04:06:50;;;;;;;13.73;10.80;;;16.00;63.70;;;;;;5029068;28;20397;-63
2021/04/30 04:09:16;;;;;;;13.45;10.80;;;16.60;62.60;;;;;;5043931;28;20029;-63
2021/04/30 04:11:43;;;;;;;14.10;10.57;;;17.30;61.00;;;;;;5052243;28;20032;-63
2021/04/30 04:14:08;;;;;;;12.18;10.48;;;18.00;59.10;;;;;;5020625;28;20029;-63
2021/04/30 04:16:34;;;;;;;12.98;10.45;;;18.70;57.30;;;;;;5034259;28;20469;-63
2021/04/30 04:19:00;;;;;;;12.95;11.23;;;19.20;55.90;;;;;;5033804;28;20026;-63
2021/04/30 04:21:26;;;;;;;11.65;10.45;;;19.50;54.70;;;;;;5034554;28;20377;-63
2021/04/30 04:23:52;;;;;;;12.70;9.98;;;19.70;53.60;;;;;;5023012;28;20018;-63
2021/04/30 04:26:17;;;;;;;13.65;11.07;;;19.90;53.30;;;;;;5032897;28;20116;-62
2021/04/30 04:28:43;;;;;;;12.88;10.80;;;20.20;52.60;;;;;;5028510;28;20043;-62
2021/04/30 04:31:09;;;;;;;11.40;10.15;;;20.50;51.90;;;;;;5020576;28;20053;-62
2021/04/30 04:33:35;;;;;;;12.63;10.65;;;20.60;51.30;;;;;;5012209;28;20041;-62
2021/04/30 04:36:01;;;;;;;15.18;11.65;;;20.80;51.10;;;;;;5013116;28;20048;-63
2021/04/30 04:38:27;;;;;;;13.35;10.02;;;21.10;51.00;;;;;;5024983;28;20037;-62
2021/04/30 04:40:54;;;;;;;10.15;9.05;;;21.60;50.50;;;;;;5031413;28;20346;-62
2021/04/30 04:43:20;;;;;;;9.20;7.50;;;22.20;49.90;;;;;;5019208;28;20029;-63
2021/04/30 04:45:45;;;;;;;9.25;7.57;;;22.70;49.00;;;;;;5031355;28;20033;-63
2021/04/30 04:48:11;;;;;;;10.07;7.78;;;23.20;47.80;;;;;;5029853;28;20049;-62
2021/04/30 04:50:37;;;;;;;10.48;6.88;;;23.80;47.40;;;;;;5033284;28;20037;-62
2021/04/30 04:53:02;;;;;;;10.63;7.60;;;24.40;46.40;;;;;;5028331;28;20045;-63
2021/04/30 04:55:28;;;;;;;13.48;8.60;;;24.80;45.70;;;;;;5014203;28;20034;-62
2021/04/30 04:57:55;;;;;;;23.75;13.93;;;25.20;45.30;;;;;;5027734;28;20072;-63
2021/04/30 05:00:21;;;;;;;22.30;12.48;;;25.40;44.60;;;;;;5027891;28;20053;-62
2021/04/30 05:02:47;;;;;;;28.67;14.63;;;25.60;44.40;;;;;;5033115;28;20115;-61
2021/04/30 05:05:13;;;;;;;36.40;17.95;;;25.60;43.40;;;;;;5031601;28;20038;-62
2021/04/30 05:07:39;;;;;;;36.65;18.92;;;25.30;43.00;;;;;;5032147;28;20112;-63
2021/04/30 05:10:05;;;;;;;29.90;16.63;;;24.80;43.40;;;;;;5020686;28;20028;-62
2021/04/30 05:12:30;;;;;;;31.98;16.02;;;24.40;43.70;;;;;;5031444;28;20037;-62
2021/04/30 05:14:56;;;;;;;25.27;14.70;;;24.00;44.10;;;;;;5033064;28;20489;-62
2021/04/30 05:17:22;;;;;;;21.77;11.80;;;23.60;44.50;;;;;;5025464;28;20465;-61
2021/04/30 05:19:48;;;;;;;19.40;12.45;;;23.10;45.00;;;;;;5028118;28;20036;-61
2021/04/30 05:22:14;;;;;;;14.02;11.10;;;22.60;45.20;;;;;;5022833;28;20014;-62
2021/04/30 05:24:44;;;;;;;21.13;13.07;;;22.10;45.90;;;;;;5035088;28;20021;-61
2021/04/30 05:27:11;;;;;;;16.38;11.05;;;21.60;46.60;;;;;;5027905;28;20022;-63
2021/04/30 05:29:41;;;;;;;15.63;11.13;;;21.20;47.10;;;;;;5032898;28;20021;-63
2021/04/30 05:32:08;;;;;;;17.83;11.60;;;20.80;47.60;;;;;;5027774;28;20071;-60
2021/04/30 05:34:35;;;;;;;20.13;12.45;;;20.40;48.20;;;;;;5029326;28;20381;-60
2021/04/30 05:37:01;;;;;;;25.15;13.88;;;20.10;48.70;;;;;;5026000;28;20052;-60
2021/04/30 05:39:26;;;;;;;21.55;13.68;;;19.80;49.50;;;;;;5026652;28;20470;-61
2021/04/30 05:41:53;;;;;;;27.75;15.50;;;19.60;49.80;;;;;;5033107;28;20029;-60
2021/04/30 05:44:19;;;;;;;23.55;12.63;;;19.30;50.60;;;;;;5011601;28;20030;-61
2021/04/30 05:46:44;;;;;;;21.20;13.10;;;19.00;50.90;;;;;;5027576;28;20034;-60
2021/04/30 05:49:10;;;;;;;19.70;12.07;;;18.90;51.40;;;;;;5026321;28;20079;-61
2021/04/30 05:51:36;;;;;;;22.02;12.75;;;18.80;51.70;;;;;;5024784;28;20056;-60
2021/04/30 05:54:02;;;;;;;21.10;13.20;;;18.80;52.00;;;;;;5031969;28;20030;-60
2021/04/30 05:56:28;;;;;;;31.83;15.35;;;18.70;52.40;;;;;;5017864;28;20120;-60
2021/04/30 05:58:54;;;;;;;31.35;16.63;;;18.60;52.60;;;;;;5023890;28;20061;-60
2021/04/30 06:01:19;;;;;;;30.35;15.45;;;18.60;53.10;;;;;;5021459;28;20034;-60
2021/04/30 06:03:45;;;;;;;24.60;14.27;;;18.50;53.40;;;;;;5029444;28;20075;-60
2021/04/30 06:06:10;;;;;;;27.48;14.02;;;18.50;53.40;;;;;;5025730;28;20052;-60
2021/04/30 06:08:36;;;;;;;24.50;13.18;;;18.40;53.60;;;;;;5024146;28;20045;-60
2021/04/30 06:11:02;;;;;;;31.48;14.35;;;18.40;53.90;;;;;;5023824;28;20044;-62
2021/04/30 06:13:27;;;;;;;26.17;12.65;;;18.30;54.00;;;;;;5024379;28;20033;-60
2021/04/30 06:15:53;;;;;;;31.52;15.10;;;18.30;54.20;;;;;;5023365;28;20046;-62
2021/04/30 06:18:19;;;;;;;32.10;15.15;;;18.20;54.20;;;;;;5025995;28;20021;-60
2021/04/30 06:20:45;;;;;;;24.83;14.07;;;18.20;54.50;;;;;;5024853;28;20133;-60
2021/04/30 06:23:11;;;;;;;26.45;12.65;;;18.30;54.70;;;;;;5027132;28;20682;-62
2021/04/30 06:25:36;;;;;;;26.05;13.63;;;18.30;54.80;;;;;;5020744;28;20026;-60
2021/04/30 06:28:02;;;;;;;20.90;12.23;;;18.30;55.10;;;;;;5015886;28;20035;-61
2021/04/30 06:30:28;;;;;;;28.00;13.85;;;18.40;55.00;;;;;;5021051;28;20476;-60
2021/04/30 06:32:53;;;;;;;27.60;13.23;;;18.40;54.80;;;;;;5016095;28;20029;-60
2021/04/30 06:35:19;;;;;;;25.63;12.73;;;18.50;55.10;;;;;;5019543;28;20034;-60
2021/04/30 06:37:45;;;;;;;19.70;11.05;;;18.50;55.20;;;;;;5020553;28;20029;-60
2021/04/30 06:40:11;;;;;;;13.57;8.77;;;18.60;55.30;;;;;;5023321;28;20026;-59
2021/04/30 06:42:36;;;;;;;16.13;9.10;;;18.70;55.10;;;;;;5017969;28;20037;-59
2021/04/30 06:45:03;;;;;;;21.27;9.82;;;18.70;55.10;;;;;;5025311;28;20030;-60
2021/04/30 06:47:28;;;;;;;16.88;8.90;;;18.70;55.40;;;;;;5024013;28;20112;-62
2021/04/30 06:49:54;;;;;;;16.83;8.95;;;18.70;54.80;;;;;;5019680;28;20175;-60
2021/04/30 06:52:20;;;;;;;19.95;10.77;;;18.60;54.50;;;;;;5016969;28;20046;-59
2021/04/30 06:54:45;;;;;;;25.70;12.50;;;18.50;54.60;;;;;;5020698;28;20037;-59
2021/04/30 06:57:15;;;;;;;23.42;11.68;;;18.50;54.80;;;;;;5018142;28;20473;-60
2021/04/30 06:59:42;;;;;;;23.08;11.57;;;18.40;55.10;;;;;;5021322;28;20071;-60
2021/04/30 07:02:08;;;;;;;18.33;9.48;;;18.40;55.90;;;;;;5018421;28;20021;-59
2021/04/30 07:04:33;;;;;;;14.85;8.90;;;18.50;55.40;;;;;;5022851;28;20018;-60
2021/04/30 07:07:00;;;;;;;21.83;10.98;;;18.50;55.10;;;;;;5027298;28;20162;-60
2021/04/30 07:09:26;;;;;;;25.92;12.77;;;18.50;55.40;;;;;;5018215;28;20049;-60
2021/04/30 07:11:52;;;;;;;18.70;11.38;;;18.60;55.60;;;;;;5020950;28;20037;-60
2021/04/30 07:14:18;;;;;;;17.83;9.35;;;18.70;55.70;;;;;;5021047;28;20026;-62
2021/04/30 07:16:43;;;;;;;12.40;8.13;;;18.70;55.50;;;;;;5019922;28;20041;-61
2021/04/30 07:19:09;;;;;;;12.45;7.82;;;18.80;55.40;;;;;;5017277;28;20021;-62
2021/04/30 07:21:35;;;;;;;8.75;6.68;;;18.90;55.00;;;;;;5019038;28;20034;-61
2021/04/30 07:24:00;;;;;;;12.52;6.88;;;19.00;54.80;;;;;;5012819;28;20036;-61
2021/04/30 07:26:26;;;;;;;13.50;7.03;;;19.00;54.60;;;;;;5012895;28;20474;-60
2021/04/30 07:28:52;;;;;;;19.70;9.68;;;19.00;54.10;;;;;;5018307;28;20083;-61
2021/04/30 07:31:17;;;;;;;18.92;9.35;;;19.00;54.00;;;;;;5011642;28;20045;-61
2021/04/30 07:33:46;;;;;;;24.40;11.70;;;19.00;53.60;;;;;;5013028;28;20056;-61
2021/04/30 07:36:16;;;;;;;28.63;12.60;;;19.00;53.40;;;;;;5015166;28;20033;-61
2021/04/30 07:38:42;;;;;;;18.77;10.30;;;19.00;53.50;;;;;;5015745;28;20041;-61
2021/04/30 07:41:08;;;;;;;15.93;9.77;;;19.00;53.70;;;;;;5014593;28;21511;-61
2021/04/30 07:43:34;;;;;;;16.67;7.75;;;19.00;53.50;;;;;;5018885;28;20358;-61
2021/04/30 07:46:00;;;;;;;14.00;8.30;;;19.10;53.20;;;;;;5017943;28;20040;-61
2021/04/30 07:48:29;;;;;;;15.23;8.85;;;19.10;53.50;;;;;;5018083;28;20038;-61
2021/04/30 07:50:59;;;;;;;23.17;10.40;;;19.20;53.50;;;;;;5013834;28;20038;-61
2021/04/30 07:53:25;;;;;;;15.10;7.28;;;19.20;53.10;;;;;;5014046;28;20657;-61
2021/04/30 07:55:51;;;;;;;17.38;8.48;;;19.20;53.00;;;;;;5011835;28;20033;-61
2021/04/30 07:58:19;;;;;;;10.98;6.38;;;19.20;52.90;;;;;;5010070;28;20026;-62
2021/04/30 08:00:45;;;;;;;8.63;5.70;;;19.20;52.60;;;;;;5011598;28;20045;-61
2021/04/30 08:03:11;;;;;;;7.10;4.70;;;19.20;52.30;;;;;;5012835;28;20367;-62
2021/04/30 08:05:37;;;;;;;10.32;4.93;;;19.10;52.40;;;;;;5020394;28;20045;-62
2021/04/30 08:08:04;;;;;;;6.55;3.90;;;19.10;52.40;;;;;;5015878;28;20083;-62
2021/04/30 08:10:31;;;;;;;6.65;4.55;;;19.10;52.20;;;;;;5015580;28;20041;-62
2021/04/30 08:12:58;;;;;;;10.65;5.97;;;19.10;52.30;;;;;;5001224;28;20061;-61
2021/04/30 08:15:23;;;;;;;6.13;4.30;;;19.20;51.90;;;;;;5009595;28;20042;-62
2021/04/30 08:17:49;;;;;;;9.93;4.57;;;19.30;51.70;;;;;;5009356;28;20601;-61
2021/04/30 08:20:15;;;;;;;7.25;4.40;;;19.30;51.70;;;;;;5012272;28;20025;-61
2021/04/30 08:22:40;;;;;;;6.05;3.75;;;19.40;51.50;;;;;;5005328;28;20029;-61
2021/04/30 08:25:07;;;;;;;12.70;5.07;;;19.40;51.30;;;;;;5015061;28;20148;-62
2021/04/30 08:27:34;;;;;;;11.55;4.50;;;19.50;51.00;;;;;;5010531;28;20556;-62
2021/04/30 08:30:00;;;;;;;14.65;5.03;;;19.50;50.60;;;;;;5012454;28;20034;-62
2021/04/30 08:32:26;;;;;;;10.88;4.88;;;19.50;50.60;;;;;;5014554;28;20047;-62
2021/04/30 08:34:53;;;;;;;11.02;4.95;;;19.60;50.60;;;;;;5017248;28;20034;-62
2021/04/30 08:37:19;;;;;;;9.80;5.55;;;19.60;50.70;;;;;;5017017;28;20033;-62
2021/04/30 08:39:45;;;;;;;13.75;5.47;;;19.60;51.70;;;;;;5011615;28;20037;-62
2021/04/30 08:42:11;;;;;;;9.60;5.32;;;19.60;51.10;;;;;;5010387;28;20529;-62
2021/04/30 08:44:38;;;;;;;8.13;4.65;;;19.60;50.90;;;;;;5016553;28;20049;-62
2021/04/30 08:47:04;;;;;;;9.10;4.25;;;19.70;51.20;;;;;;5015840;28;20580;-62
2021/04/30 08:49:30;;;;;;;5.70;3.70;;;19.70;51.30;;;;;;5012547;28;20068;-62
2021/04/30 08:51:56;;;;;;;7.13;3.85;;;19.70;51.20;;;;;;5013558;28;21072;-62
2021/04/30 08:54:22;;;;;;;4.45;3.63;;;19.70;50.90;;;;;;5014150;28;20087;-62
2021/04/30 08:56:53;;;;;;;11.32;4.32;;;19.70;50.70;;;;;;5012119;28;20033;-62
2021/04/30 08:59:25;;;;;;;6.20;3.67;;;19.80;50.90;;;;;;5009636;28;20669;-62
2021/04/30 09:01:51;;;;;;;7.60;4.50;;;19.80;50.70;;;;;;5010076;28;20083;-62
2021/04/30 09:04:17;;;;;;;12.05;5.30;;;19.80;50.70;;;;;;5009672;28;20040;-63
2021/04/30 09:06:44;;;;;;;10.88;4.95;;;19.80;50.80;;;;;;5015026;28;20038;-62
2021/04/30 09:09:16;;;;;;;12.90;5.70;;;19.90;50.70;;;;;;5015155;28;20025;-62
2021/04/30 09:11:48;;;;;;;8.85;4.35;;;19.90;50.80;;;;;;5013163;28;20033;-62
2021/04/30 09:14:34;;;;;;;7.68;4.03;;;19.90;50.50;;;;;;5017779;28;20034;-62
2021/04/30 09:17:15;;;;;;;7.75;4.25;;;19.90;50.50;;;;;;5016255;28;20034;-62
2021/04/30 09:19:51;;;;;;;10.65;5.07;;;20.00;50.50;;;;;;5015159;28;20470;-62
2021/04/30 09:22:21;;;;;;;10.82;5.05;;;20.00;50.60;;;;;;5012868;28;20048;-62
2021/04/30 09:24:55;;;;;;;9.15;4.70;;;20.00;50.80;;;;;;5018401;28;20025;-62
2021/04/30 09:27:29;;;;;;;7.32;3.92;;;20.00;50.80;;;;;;5017518;28;20034;-62
2021/04/30 09:30:26;;;;;;;5.22;4.03;;;20.00;50.70;;;;;;5006442;28;20065;-63
2021/04/30 09:33:17;;;;;;;7.93;4.50;;;20.10;50.60;;;;;;5013716;28;20474;-62
2021/04/30 09:35:46;;;;;;;18.38;6.47;;;20.10;50.80;;;;;;5002694;28;20037;-62
2021/04/30 09:38:23;;;;;;;9.23;5.20;;;20.10;50.90;;;;;;5014780;28;20091;-62
2021/04/30 09:40:51;;;;;;;7.18;4.60;;;20.10;50.80;;;;;;5016456;28;20033;-62
2021/04/30 09:43:18;;;;;;;11.73;5.30;;;20.10;50.90;;;;;;5010397;28;20035;-62
2021/04/30 09:45:45;;;;;;;10.00;4.80;;;20.20;50.90;;;;;;5008946;28;20642;-62
2021/04/30 09:48:13;;;;;;;8.88;4.60;;;20.20;51.00;;;;;;5009361;28;20426;-62
2021/04/30 09:50:41;;;;;;;15.05;7.25;;;20.20;50.90;;;;;;5004055;28;20033;-62
2021/04/30 09:53:10;;;;;;;8.00;4.80;;;20.30;51.00;;;;;;5005592;28;20180;-62
2021/04/30 09:55:49;;;;;;;8.80;4.55;;;20.30;50.70;;;;;;5006612;28;20096;-62
2021/04/30 09:58:17;;;;;;;8.40;3.75;;;20.30;50.70;;;;;;5000657;28;20175;-62
2021/04/30 10:00:46;;;;;;;14.23;4.20;;;20.40;50.40;;;;;;5010017;28;20405;-62
2021/04/30 10:03:19;;;;;;;5.60;3.65;;;20.40;50.10;;;;;;5013079;28;20071;-62
2021/04/30 10:06:02;;;;;;;11.90;5.57;;;20.40;50.30;;;;;;5011478;28;20113;-62
2021/04/30 10:08:29;;;;;;;10.10;4.45;;;20.50;50.40;;;;;;5011986;28;20033;-63
2021/04/30 10:10:56;;;;;;;7.07;3.80;;;20.50;50.60;;;;;;5015785;28;20039;-62
2021/04/30 10:13:21;;;;;;;7.50;3.95;;;20.50;50.40;;;;;;5015877;28;20413;-63
2021/04/30 10:15:47;;;;;;;6.78;3.63;;;20.50;50.30;;;;;;5011555;28;20025;-62
2021/04/30 10:18:16;;;;;;;10.88;4.25;;;20.60;50.20;;;;;;5014465;28;20030;-61
2021/04/30 10:20:42;;;;;;;21.08;5.28;;;20.60;50.00;;;;;;5000765;28;20037;-61
2021/04/30 10:23:14;;;;;;;6.10;3.60;;;20.60;50.30;;;;;;5009069;28;20041;-62
2021/04/30 10:25:45;;;;;;;7.22;3.65;;;20.70;50.20;;;;;;5017284;28;20462;-61
2021/04/30 10:28:14;;;;;;;5.60;3.40;;;20.70;50.00;;;;;;5019754;28;20034;-62
2021/04/30 10:30:49;;;;;;;8.25;4.53;;;20.70;49.90;;;;;;5014748;28;20282;-62
2021/04/30 10:33:24;;;;;;;8.75;4.32;;;20.80;49.80;;;;;;5018878;28;20069;-61
2021/04/30 10:35:56;;;;;;;12.68;3.90;;;20.80;50.30;;;;;;5015546;28;20706;-62
2021/04/30 10:38:24;;;;;;;4.38;3.33;;;20.80;49.60;;;;;;5016594;28;20077;-61
2021/04/30 10:40:57;;;;;;;8.20;3.67;;;20.80;49.60;;;;;;5016742;28;20025;-61
2021/04/30 10:43:23;;;;;;;7.93;3.85;;;20.80;49.60;;;;;;5000552;28;20041;-62
2021/04/30 10:46:13;;;;;;;4.47;3.38;;;20.80;49.60;;;;;;5019889;28;20044;-61
2021/04/30 10:49:04;;;;;;;5.90;3.42;;;20.80;49.50;;;;;;5018382;28;20032;-61
2021/04/30 10:51:33;;;;;;;7.70;3.37;;;20.80;49.60;;;;;;5015605;28;20041;-61
2021/04/30 10:54:28;;;;;;;5.90;3.50;;;20.80;50.00;;;;;;5016087;28;20717;-62
2021/04/30 10:57:15;;;;;;;8.10;3.70;;;20.90;49.80;;;;;;5021627;28;20029;-62
2021/04/30 10:59:51;;;;;;;6.07;3.50;;;20.90;50.00;;;;;;5016645;28;20041;-62
2021/04/30 11:02:34;;;;;;;15.82;4.00;;;20.90;50.10;;;;;;5015750;28;20124;-62
2021/04/30 11:05:06;;;;;;;8.70;3.30;;;20.90;50.20;;;;;;5015046;28;20071;-62
2021/04/30 11:07:37;;;;;;;6.22;3.60;;;20.90;49.90;;;;;;4998484;28;20559;-62
2021/04/30 11:10:21;;;;;;;9.50;3.30;;;21.00;49.70;;;;;;5018888;28;20038;-62
2021/04/30 11:12:53;;;;;;;7.78;3.78;;;20.90;49.70;;;;;;5017121;28;20057;-62
2021/04/30 11:15:19;;;;;;;7.25;3.70;;;20.90;49.70;;;;;;5022690;28;20037;-62
2021/04/30 11:17:54;;;;;;;6.05;3.40;;;20.90;49.50;;;;;;5020719;28;20044;-61
2021/04/30 11:20:21;;;;;;;3.88;3.45;;;20.90;49.50;;;;;;5020700;28;20075;-62
2021/04/30 11:23:13;;;;;;;6.78;4.28;;;20.90;49.80;;;;;;5020971;28;20045;-62
2021/04/30 11:25:57;;;;;;;5.13;3.60;;;20.90;49.60;;;;;;5019942;28;20080;-62
2021/04/30 11:28:29;;;;;;;6.22;3.92;;;20.90;49.70;;;;;;5014172;28;20029;-61
2021/04/30 11:31:11;;;;;;;9.23;4.05;;;20.90;49.90;;;;;;5022234;28;20035;-62
2021/04/30 11:33:42;;;;;;;6.40;3.60;;;20.80;49.90;;;;;;5021278;28;20025;-62
2021/04/30 11:36:11;;;;;;;8.15;3.50;;;20.90;49.90;;;;;;5023998;28;20132;-62
2021/04/30 11:38:43;;;;;;;4.65;3.10;;;20.90;49.60;;;;;;5020302;28;20399;-62
2021/04/30 11:41:10;;;;;;;7.82;3.70;;;20.90;49.90;;;;;;5020607;28;20029;-62
2021/04/30 11:43:38;;;;;;;5.00;3.30;;;20.90;49.80;;;;;;5016832;28;20117;-62
2021/04/30 11:46:05;;;;;;;4.60;3.13;;;20.90;49.80;;;;;;5020221;28;20029;-62
2021/04/30 11:48:30;;;;;;;4.55;3.53;;;21.00;50.10;;;;;;5014604;28;20037;-62
2021/04/30 11:51:00;;;;;;;5.70;3.25;;;21.00;49.80;;;;;;5017512;28;20026;-61
2021/04/30 11:53:26;;;;;;;4.72;3.22;;;21.10;49.90;;;;;;5018238;28;20041;-62
2021/04/30 11:55:53;;;;;;;6.22;3.20;;;21.10;49.70;;;;;;5018008;28;20069;-62
2021/04/30 11:58:19;;;;;;;7.40;3.20;;;21.20;50.00;;;;;;5017394;28;20038;-61
2021/04/30 12:00:51;;;;;;;5.28;3.25;;;21.20;49.70;;;;;;5019137;28;20022;-61
2021/04/30 12:03:17;;;;;;;6.70;3.30;;;21.30;49.80;;;;;;5022604;28;20038;-62
2021/04/30 12:05:44;;;;;;;8.50;3.47;;;21.30;49.80;;;;;;5018238;28;20026;-62
2021/04/30 12:08:10;;;;;;;5.20;3.00;;;21.30;49.80;;;;;;5015713;28;20040;-61
2021/04/30 12:10:37;;;;;;;6.95;3.47;;;21.40;49.80;;;;;;5018821;28;20037;-62
2021/04/30 12:13:07;;;;;;;8.55;3.85;;;21.40;49.50;;;;;;5014601;28;20063;-61
2021/04/30 12:15:40;;;;;;;6.22;3.08;;;21.50;49.70;;;;;;5017489;28;20040;-61
2021/04/30 12:18:06;;;;;;;5.60;3.88;;;21.50;49.50;;;;;;5021821;28;20067;-61
2021/04/30 12:20:34;;;;;;;5.95;3.38;;;21.60;49.30;;;;;;5017516;28;20021;-61
2021/04/30 12:23:01;;;;;;;5.43;3.65;;;21.60;49.70;;;;;;5018893;28;20922;-62
2021/04/30 12:25:42;;;;;;;4.88;3.53;;;21.60;49.40;;;;;;5020847;28;20033;-60
2021/04/30 12:28:13;;;;;;;6.43;3.50;;;21.70;49.80;;;;;;5022902;28;20099;-62
2021/04/30 12:30:39;;;;;;;6.53;3.22;;;21.60;49.60;;;;;;5015515;28;20040;-62
2021/04/30 12:33:05;;;;;;;7.00;3.28;;;21.60;49.70;;;;;;5018859;28;21423;-62
2021/04/30 12:35:31;;;;;;;7.05;3.58;;;21.70;49.60;;;;;;5021428;28;20038;-61